Time;durP1;ratioP1;P1;durP2;ratioP2;P2;SDS_P1;SDS_P2;PMS_P1;PMS_P2;Temp;Humidity;BMP_temperature;BMP_pressure;BME280_temperature;BME280_humidity;BME280_pressure;Samples;Min_cycle;Max_cycle;Signal;HPM_P1;HPM_P2
2022/09/12 00:01:35;;;;;;;5.20;4.40;;;;;;;14.09;100.00;100343.85;108286;1241;62218;-72
2022/09/12 00:04:05;;;;;;;5.80;4.30;;;;;;;14.05;100.00;100343.83;108245;1241;72461;-73
2022/09/12 00:06:36;;;;;;;5.20;4.10;;;;;;;14.01;100.00;100343.48;108241;1241;68929;-71
2022/09/12 00:09:12;;;;;;;6.70;4.00;;;;;;;14.01;100.00;100346.30;108250;1241;70409;-73
2022/09/12 00:11:45;;;;;;;6.10;4.20;;;;;;;13.98;100.00;100348.02;108304;1241;71694;-72
2022/09/12 00:14:16;;;;;;;;;;;;;;;13.88;100.00;100346.67;108256;1241;60547;-72
2022/09/12 00:16:45;;;;;;;6.50;4.40;;;;;;;13.84;100.00;100344.42;108281;1241;59939;-73
2022/09/12 00:19:14;;;;;;;5.90;4.80;;;;;;;13.81;100.00;100344.88;108307;1241;71319;-71
2022/09/12 00:21:43;;;;;;;7.80;4.10;;;;;;;13.79;100.00;100337.34;108217;1241;70645;-72
2022/09/12 00:24:12;;;;;;;5.60;4.40;;;;;;;13.79;100.00;100334.67;108107;1242;69479;-72
2022/09/12 00:26:41;;;;;;;7.10;4.50;;;;;;;13.78;100.00;100333.35;108014;1241;73253;-72
2022/09/12 00:29:20;;;;;;;122.00;60.80;;;;;;;13.76;100.00;100330.77;108078;1241;62665;-75
2022/09/12 00:31:49;;;;;;;14.80;9.60;;;;;;;13.75;100.00;100333.64;108058;1242;61854;-77
2022/09/12 00:34:17;;;;;;;6.60;4.90;;;;;;;13.75;100.00;100333.00;108026;1243;75976;-77
2022/09/12 00:36:46;;;;;;;12.10;7.90;;;;;;;13.73;100.00;100335.43;108059;1242;70805;-78
2022/09/12 00:39:16;;;;;;;5.90;4.80;;;;;;;13.68;100.00;100334.42;108092;1241;70310;-78
2022/09/12 00:41:45;;;;;;;6.00;3.80;;;;;;;13.63;100.00;100343.48;108054;1241;70793;-76
2022/09/12 00:44:14;;;;;;;4.80;3.70;;;;;;;13.57;100.00;100347.95;108128;1241;61273;-74
2022/09/12 00:46:46;;;;;;;6.80;4.40;;;;;;;13.53;100.00;100346.48;108217;1241;60943;-75
2022/09/12 00:49:48;;;;;;;7.70;5.40;;;;;;;13.53;100.00;100346.14;108179;1241;71187;-74
2022/09/12 00:52:25;;;;;;;8.00;5.00;;;;;;;13.55;100.00;100350.16;108176;1241;69537;-77
2022/09/12 00:54:59;;;;;;;7.50;5.80;;;;;;;13.59;100.00;100344.55;106646;1240;2062561;-75
2022/09/12 00:57:44;;;;;;;6.70;5.20;;;;;;;13.60;100.00;100337.54;107989;1242;71543;-76
2022/09/12 01:00:17;;;;;;;11.60;7.90;;;;;;;13.61;100.00;100335.98;108217;1241;61299;-75
2022/09/12 01:02:51;;;;;;;;;;;;;;;13.63;100.00;100337.04;108219;1242;58893;-75
2022/09/12 01:05:23;;;;;;;6.90;5.10;;;;;;;13.66;100.00;100336.42;108183;1242;72445;-78
2022/09/12 01:07:53;;;;;;;7.00;4.80;;;;;;;13.67;100.00;100334.20;108349;1241;72095;-76
2022/09/12 01:10:23;;;;;;;7.20;5.70;;;;;;;13.74;100.00;100336.70;108034;1243;70461;-74
2022/09/12 01:12:52;;;;;;;9.00;5.40;;;;;;;13.76;100.00;100335.70;108212;1242;71617;-79
2022/09/12 01:15:21;;;;;;;8.00;6.30;;;;;;;13.72;100.00;100334.04;108145;1241;60343;-75
2022/09/12 01:18:08;;;;;;;8.00;6.00;;;;;;;13.70;100.00;100333.55;108090;1241;61287;-75
2022/09/12 01:21:00;;;;;;;9.80;5.90;;;;;;;13.70;100.00;100328.02;108239;1241;73914;-73
2022/09/12 01:24:04;;;;;;;9.90;7.30;;;;;;;13.71;100.00;100331.02;108196;1241;70111;-74
2022/09/12 01:27:13;;;;;;;10.50;6.40;;;;;;;13.70;100.00;100325.50;108315;1241;67103;-77
2022/09/12 01:30:21;;;;;;;7.90;5.80;;;;;;;13.70;100.00;100329.08;108079;1241;74347;-76
2022/09/12 01:33:22;;;;;;;8.10;5.50;;;;;;;13.66;100.00;100328.22;108316;1242;62077;-75
2022/09/12 01:36:01;;;;;;;8.30;5.40;;;;;;;13.63;100.00;100323.03;108353;1241;61275;-74
2022/09/12 01:39:08;;;;;;;7.50;5.50;;;;;;;13.59;100.00;100322.23;108169;1244;72144;-75
2022/09/12 01:41:49;;;;;;;7.40;5.30;;;;;;;13.51;100.00;100323.02;107961;1244;69850;-74
2022/09/12 01:45:14;;;;;;;8.00;5.70;;;;;;;13.47;100.00;100324.27;108202;1242;70541;-74
2022/09/12 01:47:52;;;;;;;10.20;6.60;;;;;;;13.47;100.00;100327.41;108300;1242;72407;-75
2022/09/12 01:50:27;;;;;;;12.40;6.40;;;;;;;13.46;100.00;100332.94;108278;1241;62948;-75
2022/09/12 01:53:25;;;;;;;9.00;6.90;;;;;;;13.43;100.00;100333.45;108226;1241;61299;-74
2022/09/12 01:56:04;;;;;;;10.00;7.10;;;;;;;13.40;100.00;100334.07;108333;1241;75277;-74
2022/09/12 01:58:45;;;;;;;10.30;6.60;;;;;;;13.40;100.00;100338.02;108319;1241;72363;-74
2022/09/12 02:01:35;;;;;;;7.40;6.00;;;;;;;13.41;100.00;100340.94;108232;1242;68253;-76
2022/09/12 02:04:28;;;;;;;12.70;6.90;;;;;;;13.41;100.00;100342.02;108337;1241;73109;-75
2022/09/12 02:07:41;;;;;;;11.20;7.10;;;;;;;13.42;100.00;100342.38;108343;1241;63923;-75
2022/09/12 02:10:21;;;;;;;10.20;6.20;;;;;;;13.43;100.00;100344.58;107314;1250;61924;-76
2022/09/12 02:13:12;;;;;;;7.00;4.80;;;;;;;13.42;100.00;100342.41;108136;1242;73407;-77
2022/09/12 02:15:51;;;;;;;8.20;5.30;;;;;;;13.39;100.00;100341.11;108159;1244;71401;-75
2022/09/12 02:18:20;;;;;;;8.50;5.50;;;;;;;13.38;100.00;100338.44;108302;1241;68291;-74
2022/09/12 02:20:50;;;;;;;9.70;5.80;;;;;;;13.39;100.00;100335.55;108207;1241;74103;-75
2022/09/12 02:23:27;;;;;;;8.00;5.20;;;;;;;13.40;100.00;100336.34;108259;1241;61093;-77
2022/09/12 02:26:03;;;;;;;7.00;5.30;;;;;;;13.40;100.00;100336.30;108350;1240;59499;-77
2022/09/12 02:28:41;;;;;;;6.70;5.10;;;;;;;13.40;100.00;100336.70;108193;1241;71737;-77
2022/09/12 02:31:24;;;;;;;7.40;5.30;;;;;;;13.42;100.00;100343.84;108285;1241;70673;-79
2022/09/12 02:34:09;;;;;;;9.10;5.70;;;;;;;13.42;100.00;100343.98;108419;1241;68543;-80
2022/09/12 02:37:17;;;;;;;7.20;5.20;;;;;;;13.42;100.00;100338.42;108281;1241;73107;-80
2022/09/12 02:39:46;;;;;;;8.20;5.30;;;;;;;13.39;100.00;100340.44;108314;1241;61214;-77
2022/09/12 02:42:15;;;;;;;9.70;5.10;;;;;;;13.39;100.00;100340.91;108191;1244;58964;-77
2022/09/12 02:44:44;;;;;;;6.70;4.80;;;;;;;13.37;100.00;100347.09;108179;1243;74706;-75
2022/09/12 02:47:28;;;;;;;7.90;4.70;;;;;;;13.35;100.00;100353.79;108147;1242;71360;-74
2022/09/12 02:49:59;;;;;;;7.60;4.30;;;;;;;13.27;100.00;100361.77;108385;1241;70155;-77
2022/09/12 02:52:28;;;;;;;7.00;4.40;;;;;;;13.21;100.00;100366.67;108172;1242;73961;-75
2022/09/12 02:54:58;;;;;;;6.50;4.40;;;;;;;13.17;100.00;100367.52;108257;1243;60555;-76
2022/09/12 02:57:27;;;;;;;7.60;4.50;;;;;;;13.14;100.00;100369.77;108012;1241;60084;-75
2022/09/12 03:00:00;;;;;;;6.00;4.60;;;;;;;13.09;100.00;100365.42;108260;1241;73192;-75
2022/09/12 03:03:15;;;;;;;10.00;6.20;;;;;;;13.05;100.00;100366.52;108153;1241;71970;-75
2022/09/12 03:06:35;;;;;;;13.60;6.60;;;;;;;13.06;100.00;100363.62;108199;1241;70241;-73
2022/09/12 03:09:43;;;;;;;12.00;7.70;;;;;;;13.07;100.00;100367.60;107552;1241;73788;-73
2022/09/12 03:12:30;;;;;;;8.10;6.90;;;;;;;13.09;100.00;100370.59;108119;1241;62478;-73
2022/09/12 03:15:03;;;;;;;12.20;7.60;;;;;;;13.08;100.00;100371.14;108193;1241;60114;-74
2022/09/12 03:17:44;;;;;;;12.00;6.70;;;;;;;13.08;100.00;100371.69;108319;1242;72809;-74
2022/09/12 03:20:46;;;;;;;10.30;6.80;;;;;;;13.07;100.00;100374.59;107932;1244;73603;-73
2022/09/12 03:23:50;;;;;;;9.40;6.90;;;;;;;13.04;100.00;100372.37;108136;1241;71436;-74
2022/09/12 03:26:29;;;;;;;11.30;7.90;;;;;;;13.02;100.00;100378.02;107826;1241;74645;-74
2022/09/12 03:29:01;;;;;;;10.80;7.00;;;;;;;12.98;100.00;100376.72;107689;1244;62595;-76
2022/09/12 03:31:30;;;;;;;8.40;6.30;;;;;;;12.93;100.00;100378.89;107737;1241;61303;-74
2022/09/12 03:34:00;;;;;;;10.30;6.20;;;;;;;12.90;100.00;100376.94;107976;1241;72138;-76
2022/09/12 03:36:29;;;;;;;11.20;7.20;;;;;;;12.83;100.00;100377.17;108028;1241;72120;-74
2022/09/12 03:38:58;;;;;;;7.40;5.50;;;;;;;12.82;100.00;100382.90;108292;1241;66971;-78
2022/09/12 03:41:26;;;;;;;11.60;6.30;;;;;;;12.78;100.00;100383.59;107932;1244;74311;-76
2022/09/12 03:43:55;;;;;;;12.60;5.80;;;;;;;12.76;100.00;100386.20;108196;1241;61897;-76
2022/09/12 03:46:24;;;;;;;14.00;8.60;;;;;;;12.74;100.00;100390.85;108153;1241;59807;-74
2022/09/12 03:48:53;;;;;;;46.50;25.50;;;;;;;12.73;100.00;100397.94;107902;1244;70934;-78
2022/09/12 03:51:21;;;;;;;9.10;7.60;;;;;;;12.73;100.00;100401.49;107728;1244;70484;-75
2022/09/12 03:53:50;;;;;;;9.90;7.10;;;;;;;12.74;100.00;100407.45;107770;1244;69110;-79
2022/09/12 03:56:19;;;;;;;11.60;7.50;;;;;;;12.77;100.00;100409.66;107812;1244;71006;-76
2022/09/12 03:58:48;;;;;;;13.50;6.50;;;;;;;12.77;100.00;100410.95;108043;1242;60715;-78
2022/09/12 04:01:19;;;;;;;15.00;7.10;;;;;;;12.77;100.00;100406.31;108207;1241;60526;-76
2022/09/12 04:03:50;;;;;;;11.10;6.50;;;;;;;12.84;100.00;100409.28;108194;1241;73478;-76
2022/09/12 04:06:21;;;;;;;11.30;7.20;;;;;;;12.88;100.00;100414.11;107936;1244;70966;-84
2022/09/12 04:08:52;;;;;;;17.10;7.20;;;;;;;12.95;100.00;100418.08;108304;1241;68200;-77
2022/09/12 04:11:22;;;;;;;15.40;7.80;;;;;;;13.02;100.00;100419.07;107979;1244;71908;-82
2022/09/12 04:13:51;;;;;;;15.10;8.60;;;;;;;13.07;100.00;100414.38;108130;1244;60626;-80
2022/09/12 04:16:20;;;;;;;14.40;7.70;;;;;;;13.15;100.00;100410.77;107889;1244;59732;-84
2022/09/12 04:18:49;;;;;;;9.00;6.60;;;;;;;13.22;100.00;100404.20;108240;1241;74444;-79
2022/09/12 04:21:21;;;;;;;7.40;5.40;;;;;;;13.31;100.00;100408.02;108184;1241;73825;-74
2022/09/12 04:23:49;;;;;;;7.00;4.90;;;;;;;13.38;100.00;100407.15;108191;1241;69695;-70
2022/09/12 04:26:19;;;;;;;8.40;4.50;;;;;;;13.47;100.00;100407.92;107744;1244;72191;-71
2022/09/12 04:28:56;;;;;;;5.50;4.50;;;;;;;13.54;100.00;100411.52;108108;1241;60567;-71
2022/09/12 04:31:25;;;;;;;6.80;4.80;;;;;;;13.64;100.00;100414.46;108129;1241;59259;-73
2022/09/12 04:33:56;;;;;;;6.80;5.10;;;;;;;13.70;100.00;100414.13;108215;1241;72431;-72
2022/09/12 04:36:27;;;;;;;5.20;4.70;;;;;;;13.73;100.00;100418.58;108166;1241;69576;-71
2022/09/12 04:38:55;;;;;;;5.80;5.10;;;;;;;13.76;100.00;100416.36;108162;1241;70424;-74
2022/09/12 04:41:30;;;;;;;6.70;4.90;;;;;;;13.79;100.00;100419.21;107845;1244;71629;-72
2022/09/12 04:44:06;;;;;;;7.20;5.20;;;;;;;13.84;100.00;100434.38;108062;1241;61240;-70
2022/09/12 04:46:40;;;;;;;7.30;5.30;;;;;;;13.89;100.00;100441.73;108192;1241;61488;-71
2022/09/12 04:49:11;;;;;;;6.20;4.70;;;;;;;14.01;100.00;100438.57;108073;1244;72994;-71
2022/09/12 04:51:42;;;;;;;7.10;5.40;;;;;;;14.11;100.00;100438.04;108070;1241;71209;-70
2022/09/12 04:54:15;;;;;;;6.50;5.50;;;;;;;14.20;99.65;100444.02;108090;1241;68331;-71
2022/09/12 04:56:48;;;;;;;7.30;5.30;;;;;;;14.34;99.07;100444.66;108075;1241;71983;-70
2022/09/12 04:59:19;;;;;;;6.80;5.40;;;;;;;14.36;98.28;100438.02;108062;1241;62967;-72
2022/09/12 05:01:49;;;;;;;8.80;6.20;;;;;;;14.32;94.36;100445.02;108063;1241;60407;-71
2022/09/12 05:04:18;;;;;;;7.30;4.70;;;;;;;14.41;94.98;100447.53;108100;1241;74911;-73
2022/09/12 05:06:47;;;;;;;6.10;4.60;;;;;;;14.37;92.52;100447.32;108166;1241;71178;-70
2022/09/12 05:09:16;;;;;;;7.90;5.00;;;;;;;14.51;92.54;100446.20;108179;1242;68227;-72
2022/09/12 05:11:45;;;;;;;6.10;4.40;;;;;;;14.58;92.29;100449.65;108139;1241;74935;-71
2022/09/12 05:14:34;;;;;;;9.20;5.00;;;;;;;14.65;92.13;100453.73;107960;1241;62600;-73
2022/09/12 05:17:04;;;;;;;6.10;4.80;;;;;;;14.64;91.21;100452.73;107853;1241;60854;-71
2022/09/12 05:19:33;;;;;;;8.80;5.80;;;;;;;14.73;91.37;100447.69;108203;1241;71824;-71
2022/09/12 05:22:03;;;;;;;8.20;4.90;;;;;;;14.75;91.56;100450.17;108016;1244;70477;-71
2022/09/12 05:24:32;;;;;;;8.10;5.50;;;;;;;14.74;89.49;100454.46;108200;1242;69727;-70
2022/09/12 05:27:03;;;;;;;6.90;4.70;;;;;;;14.82;89.80;100456.68;108032;1244;72920;-75
2022/09/12 05:29:32;;;;;;;10.10;4.80;;;;;;;14.84;88.14;100459.44;108253;1241;60552;-74
2022/09/12 05:32:02;;;;;;;8.70;5.00;;;;;;;14.81;89.01;100459.23;108143;1241;60496;-71
2022/09/12 05:34:31;;;;;;;7.60;4.60;;;;;;;14.83;89.20;100459.73;108038;1241;75905;-72
2022/09/12 05:37:00;;;;;;;8.50;4.70;;;;;;;14.83;87.28;100454.48;107751;1244;71472;-71
2022/09/12 05:39:29;;;;;;;5.70;4.20;;;;;;;14.82;86.65;100455.98;108173;1241;69764;-71
2022/09/12 05:41:58;;;;;;;6.00;4.50;;;;;;;14.77;86.37;100457.86;108096;1241;71661;-71
2022/09/12 05:44:27;;;;;;;8.30;5.90;;;;;;;14.72;86.44;100457.98;108164;1241;60563;-72
2022/09/12 05:46:56;;;;;;;5.80;5.00;;;;;;;14.70;86.88;100456.40;108197;1241;61263;-75
2022/09/12 05:49:25;;;;;;;6.60;4.90;;;;;;;14.70;86.45;100456.91;107987;1242;73430;-69
2022/09/12 05:51:54;;;;;;;7.30;4.90;;;;;;;14.72;85.55;100455.69;108782;1244;69666;-69
2022/09/12 05:54:23;;;;;;;5.90;4.30;;;;;;;14.72;85.66;100462.36;109284;1241;69111;-71
2022/09/12 05:56:58;;;;;;;9.80;4.90;;;;;;;14.76;85.55;100457.26;108060;1241;72295;-68
2022/09/12 05:59:27;;;;;;;7.30;5.30;;;;;;;14.80;86.12;100454.45;110436;1240;60532;-67
2022/09/12 06:01:56;;;;;;;7.70;5.40;;;;;;;14.85;84.14;100456.25;108686;1241;60468;-68
2022/09/12 06:04:26;;;;;;;7.90;5.20;;;;;;;14.82;83.35;100453.19;107839;1241;75305;-74
2022/09/12 06:06:55;;;;;;;6.30;3.80;;;;;;;14.89;83.94;100458.63;108053;1244;70042;-71
2022/09/12 06:09:24;;;;;;;7.60;4.70;;;;;;;14.94;80.89;100459.73;108214;1241;69079;-71
2022/09/12 06:11:53;;;;;;;5.10;3.40;;;;;;;14.89;79.09;100460.22;108257;1241;73277;-71
2022/09/12 06:14:22;;;;;;;4.90;3.60;;;;;;;14.90;76.58;100464.32;107964;1243;60944;-69
2022/09/12 06:16:50;;;;;;;6.10;3.60;;;;;;;14.73;76.75;100462.94;108083;1241;60289;-68
2022/09/12 06:19:22;;;;;;;7.20;3.50;;;;;;;14.51;77.56;100471.31;108090;1241;71851;-67
2022/09/12 06:21:52;;;;;;;4.80;3.70;;;;;;;14.39;78.89;100466.80;108161;1241;70170;-70
2022/09/12 06:24:21;;;;;;;6.30;3.00;;;;;;;14.19;79.50;100471.27;108203;1241;69010;-72
2022/09/12 06:26:51;;;;;;;6.40;3.00;;;;;;;14.20;76.70;100470.98;107862;1244;72783;-68
2022/09/12 06:29:21;;;;;;;4.30;2.90;;;;;;;14.00;75.82;100465.77;107950;1241;61123;-69
2022/09/12 06:31:50;;;;;;;6.40;3.10;;;;;;;13.86;75.45;100464.98;108091;1241;61908;-69
2022/09/12 06:34:18;;;;;;;6.00;2.90;;;;;;;13.88;76.21;100465.54;108119;1241;73851;-71
2022/09/12 06:36:48;;;;;;;5.90;3.30;;;;;;;13.89;76.04;100465.56;108205;1241;72148;-70
2022/09/12 06:39:22;;;;;;;5.20;2.90;;;;;;;13.94;75.69;100471.05;108086;1244;68560;-68
2022/09/12 06:41:51;;;;;;;6.40;3.60;;;;;;;13.92;75.84;100477.16;108199;1241;73992;-66
2022/09/12 06:44:30;;;;;;;5.40;3.20;;;;;;;14.09;75.92;100472.69;107976;1241;62613;-67
2022/09/12 06:46:59;;;;;;;6.80;3.70;;;;;;;14.14;75.39;100476.83;107949;1242;59547;-74
2022/09/12 06:49:28;;;;;;;6.20;3.60;;;;;;;14.32;75.12;100479.90;108162;1241;74755;-68
2022/09/12 06:51:56;;;;;;;5.00;3.40;;;;;;;14.52;75.68;100481.23;108153;1241;71678;-71
2022/09/12 06:54:25;;;;;;;4.90;3.20;;;;;;;14.71;74.02;100481.19;107931;1241;69548;-68
2022/09/12 06:56:54;;;;;;;4.90;3.20;;;;;;;14.97;74.00;100480.14;108184;1241;72678;-70
2022/09/12 06:59:23;;;;;;;8.60;3.10;;;;;;;15.14;70.69;100479.64;108215;1241;61362;-71
2022/09/12 07:01:52;;;;;;;3.90;2.70;;;;;;;15.31;70.25;100473.40;108211;1241;60003;-71
2022/09/12 07:04:21;;;;;;;5.50;2.50;;;;;;;15.24;68.72;100467.56;108158;1241;72495;-72
2022/09/12 07:06:50;;;;;;;6.30;2.60;;;;;;;15.34;67.66;100465.59;108104;1241;71092;-75
2022/09/12 07:09:19;;;;;;;5.00;2.70;;;;;;;15.35;67.33;100468.42;107970;1241;69581;-71
2022/09/12 07:11:48;;;;;;;7.70;4.20;;;;;;;15.30;67.08;100469.63;108232;1241;73495;-70
2022/09/12 07:14:16;;;;;;;6.70;3.40;;;;;;;15.09;68.05;100473.45;107985;1244;60141;-72
2022/09/12 07:16:45;;;;;;;6.20;2.80;;;;;;;15.24;67.74;100474.06;107991;1241;59534;-70
2022/09/12 07:19:13;;;;;;;3.80;2.90;;;;;;;15.16;68.29;100473.05;108147;1241;75004;-71
2022/09/12 07:21:43;;;;;;;5.50;2.60;;;;;;;15.19;67.84;100474.58;108211;1241;72073;-72
2022/09/12 07:24:12;;;;;;;5.20;2.90;;;;;;;15.14;67.37;100472.23;108021;1241;69164;-70
2022/09/12 07:26:41;;;;;;;7.60;3.10;;;;;;;15.16;68.14;100475.89;108037;1242;71728;-70
2022/09/12 07:29:15;;;;;;;8.30;3.70;;;;;;;15.05;67.62;100475.69;108303;1241;59485;-71
2022/09/12 07:32:05;;;;;;;4.20;3.00;;;;;;;15.23;68.46;100477.32;108285;1241;61411;-70
2022/09/12 07:34:35;;;;;;;4.90;3.00;;;;;;;15.33;68.55;100480.61;107975;1244;71931;-67
2022/09/12 07:37:05;;;;;;;5.10;3.30;;;;;;;15.36;67.79;100482.73;108093;1241;72325;-69
2022/09/12 07:39:33;;;;;;;5.20;2.90;;;;;;;15.41;66.41;100485.61;108001;1241;71360;-71
2022/09/12 07:42:02;;;;;;;7.20;3.20;;;;;;;15.42;66.23;100484.48;108260;1241;70923;-78
2022/09/12 07:44:32;;;;;;;5.30;3.00;;;;;;;15.55;66.11;100487.81;108252;1241;61784;-72
2022/09/12 07:47:01;;;;;;;8.10;3.00;;;;;;;15.56;65.29;100490.69;108279;1241;59496;-77
2022/09/12 07:49:30;;;;;;;5.30;3.00;;;;;;;15.74;65.69;100486.52;108329;1241;72590;-72
2022/09/12 07:51:58;;;;;;;4.70;3.00;;;;;;;15.68;64.90;100481.77;108246;1241;71386;-72
2022/09/12 07:54:27;;;;;;;6.20;3.00;;;;;;;15.89;64.97;100486.00;108279;1241;69125;-71
2022/09/12 07:56:56;;;;;;;3.80;2.90;;;;;;;16.14;64.33;100474.63;108245;1241;71257;-74
2022/09/12 07:59:25;;;;;;;5.60;2.90;;;;;;;16.18;63.31;100471.08;108045;1241;60482;-76
2022/09/12 08:02:13;;;;;;;5.20;2.60;;;;;;;16.45;63.83;100468.56;107992;1242;61673;-74
2022/09/12 08:04:48;;;;;;;6.70;3.70;;;;;;;16.47;63.17;100468.35;108248;1241;73410;-74
2022/09/12 08:07:18;;;;;;;3.10;2.30;;;;;;;16.39;62.56;100465.44;108038;1241;70018;-74
2022/09/12 08:09:47;;;;;;;4.20;2.70;;;;;;;16.21;61.24;100470.23;108209;1241;69671;-73
2022/09/12 08:12:16;;;;;;;4.90;2.60;;;;;;;16.06;62.08;100470.17;108223;1241;72510;-74
2022/09/12 08:14:45;;;;;;;4.30;2.70;;;;;;;16.27;62.36;100466.42;108243;1241;59638;-74
2022/09/12 08:17:14;;;;;;;4.40;2.90;;;;;;;16.28;61.92;100470.08;108024;1241;59579;-75
2022/09/12 08:19:43;;;;;;;5.20;3.10;;;;;;;16.21;61.72;100466.22;107998;1241;73724;-73
2022/09/12 08:22:12;;;;;;;4.00;2.40;;;;;;;16.23;61.68;100470.25;108232;1241;61964;-72
2022/09/12 08:24:41;;;;;;;3.90;2.70;;;;;;;16.20;62.20;100465.13;108221;1241;68726;-73
2022/09/12 08:27:09;;;;;;;5.70;3.30;;;;;;;16.20;62.44;100463.84;108015;1241;74321;-73
2022/09/12 08:29:38;;;;;;;4.80;3.40;;;;;;;16.13;61.67;100465.27;108127;1241;60287;-74
2022/09/12 08:32:07;;;;;;;4.50;3.40;;;;;;;15.83;62.00;100465.92;107896;1241;60520;-75
2022/09/12 08:34:36;;;;;;;6.60;3.20;;;;;;;15.86;62.26;100468.81;108072;1241;73213;-72
2022/09/12 08:37:05;;;;;;;5.10;3.40;;;;;;;15.71;61.98;100467.65;108117;1241;70214;-73
2022/09/12 08:39:33;;;;;;;9.70;3.20;;;;;;;15.47;62.58;100458.68;108111;1241;71111;-74
2022/09/12 08:42:05;;;;;;;5.50;3.40;;;;;;;15.44;63.10;100467.25;108089;1241;72514;-75
2022/09/12 08:44:46;;;;;;;4.60;3.30;;;;;;;15.56;63.33;100466.10;107870;1241;61438;-72
2022/09/12 08:47:36;;;;;;;5.60;3.70;;;;;;;15.54;63.48;100459.80;108190;1241;60047;-71
2022/09/12 08:50:10;;;;;;;7.90;3.00;;;;;;;15.52;63.22;100459.48;108107;1241;75063;-73
2022/09/12 08:53:02;;;;;;;5.30;3.30;;;;;;;15.60;62.40;100466.38;108140;1241;70704;-73
2022/09/12 08:55:37;;;;;;;5.90;3.80;;;;;;;15.67;62.21;100467.45;108014;1244;69735;-69
2022/09/12 08:58:15;;;;;;;4.40;3.00;;;;;;;15.72;61.79;100462.60;108219;1241;72577;-73
2022/09/12 09:01:09;;;;;;;5.10;3.10;;;;;;;15.81;60.44;100463.19;108140;1241;59449;-74
2022/09/12 09:04:21;;;;;;;6.20;3.60;;;;;;;15.61;61.61;100456.02;108188;1241;59540;-75
2022/09/12 09:07:37;;;;;;;5.70;3.10;;;;;;;15.79;61.91;100454.73;108042;1241;72541;-73
2022/09/12 09:10:12;;;;;;;4.70;2.80;;;;;;;15.87;62.18;100449.90;108206;1241;72228;-72
2022/09/12 09:12:55;;;;;;;7.00;3.20;;;;;;;16.11;61.38;100453.16;107942;1243;69733;-74
2022/09/12 09:16:02;;;;;;;;;;;;;;;16.23;60.76;100454.01;108136;1241;72874;-76
2022/09/12 09:18:36;;;;;;;4.70;2.80;;;;;;;16.46;59.97;100450.12;108134;1241;59525;-72
2022/09/12 09:21:49;;;;;;;4.70;3.30;;;;;;;16.38;59.87;100447.41;107781;1244;61796;-73
2022/09/12 09:24:24;;;;;;;5.00;3.30;;;;;;;16.39;60.52;100449.84;108114;1241;73227;-73
2022/09/12 09:27:08;;;;;;;5.00;3.00;;;;;;;16.59;60.21;100452.54;108077;1241;70610;-71
2022/09/12 09:29:57;;;;;;;4.50;2.90;;;;;;;16.59;60.05;100454.45;107904;1242;61361;-73
2022/09/12 09:32:33;;;;;;;7.00;3.00;;;;;;;16.53;59.31;100451.02;108159;1241;73456;-73
2022/09/12 09:35:15;;;;;;;3.70;2.70;;;;;;;16.66;59.31;100457.63;108118;1241;59458;-72
2022/09/12 09:37:56;;;;;;;4.70;2.80;;;;;;;16.88;59.42;100451.38;108142;1241;59697;-78
2022/09/12 09:40:45;;;;;;;4.00;2.50;;;;;;;16.93;59.00;100453.50;108010;1244;72397;-74
2022/09/12 09:43:23;;;;;;;4.00;3.00;;;;;;;16.97;59.18;100455.46;108085;1241;61930;-74
2022/09/12 09:45:52;;;;;;;6.90;3.00;;;;;;;17.11;58.23;100458.40;107937;1241;70609;-73
2022/09/12 09:48:36;;;;;;;5.50;2.80;;;;;;;17.14;58.29;100455.66;107903;1243;62847;-74
2022/09/12 09:51:08;;;;;;;6.00;2.90;;;;;;;17.03;58.95;100458.23;108244;1241;59510;-74
2022/09/12 09:54:11;;;;;;;7.10;3.10;;;;;;;17.10;58.57;100459.19;108236;1241;60438;-75
2022/09/12 09:56:42;;;;;;;6.90;2.80;;;;;;;17.17;58.23;100455.85;107927;1241;74294;-71
2022/09/12 09:59:28;;;;;;;10.40;2.90;;;;;;;17.38;58.71;100455.15;107956;1241;72320;-75
2022/09/12 10:02:28;;;;;;;5.40;2.70;;;;;;;17.76;58.36;100458.64;108039;1243;60412;-73
2022/09/12 10:04:58;;;;;;;5.00;2.70;;;;;;;18.05;57.29;100452.04;108298;1241;73972;-75
2022/09/12 10:07:26;;;;;;;4.00;2.70;;;;;;;17.86;56.99;100450.88;108009;1241;61011;-73
2022/09/12 10:10:21;;;;;;;3.60;2.40;;;;;;;17.96;57.05;100451.21;107993;1241;57819;-71
2022/09/12 10:13:07;;;;;;;6.10;2.50;;;;;;;17.86;55.20;100455.88;108136;1241;63517;-74
2022/09/12 10:15:37;;;;;;;4.60;2.30;;;;;;;17.66;54.85;100455.65;108314;1241;61775;-69
2022/09/12 10:18:06;;;;;;;3.70;2.10;;;;;;;17.55;55.22;100452.83;108277;1241;70485;-75
2022/09/12 10:20:41;;;;;;;3.30;1.90;;;;;;;17.65;54.25;100450.19;108230;1241;73531;-71
2022/09/12 10:23:17;;;;;;;4.80;2.10;;;;;;;17.64;53.64;100457.43;108322;1241;62582;-72
2022/09/12 10:25:53;;;;;;;4.90;2.10;;;;;;;17.68;52.92;100464.54;108294;1241;59542;-72
2022/09/12 10:28:47;;;;;;;3.80;1.90;;;;;;;17.67;53.14;100460.63;107962;1244;63857;-73
2022/09/12 10:31:28;;;;;;;4.70;2.20;;;;;;;17.65;52.49;100462.77;108296;1241;60861;-72
2022/09/12 10:33:59;;;;;;;3.90;2.10;;;;;;;17.46;52.56;100468.14;108270;1241;69802;-72
2022/09/12 10:36:38;;;;;;;4.30;2.50;;;;;;;17.37;53.18;100469.80;108309;1241;62339;-74
2022/09/12 10:39:17;;;;;;;3.10;2.00;;;;;;;17.31;53.39;100469.78;108372;1241;61205;-70
2022/09/12 10:41:46;;;;;;;3.50;2.20;;;;;;;17.19;53.83;100469.41;107968;1241;62177;-74
2022/09/12 10:44:25;;;;;;;3.50;2.20;;;;;;;17.10;53.89;100470.66;108046;1241;73455;-73
2022/09/12 10:46:56;;;;;;;3.80;2.20;;;;;;;17.20;54.41;100469.52;108027;1242;71943;-73
2022/09/12 10:49:30;;;;;;;8.20;2.40;;;;;;;17.16;54.45;100471.48;108313;1241;70303;-73
2022/09/12 10:52:26;;;;;;;3.00;2.20;;;;;;;17.06;55.38;100477.63;108268;1241;65394;-74
2022/09/12 10:54:55;;;;;;;3.40;2.10;;;;;;;17.11;55.82;100478.16;108293;1241;60911;-74
2022/09/12 10:58:17;;;;;;;5.20;2.20;;;;;;;17.18;55.43;100473.77;108366;1241;61914;-72
2022/09/12 11:00:58;;;;;;;3.30;2.00;;;;;;;17.29;55.22;100470.60;108048;1241;74374;-71
2022/09/12 11:03:51;;;;;;;7.30;2.10;;;;;;;17.33;54.47;100471.64;108079;1241;62435;-74
2022/09/12 11:06:32;;;;;;;5.50;2.60;;;;;;;17.32;54.79;100473.38;108270;1241;69537;-72
2022/09/12 11:09:25;;;;;;;2.50;1.90;;;;;;;17.49;54.24;100474.33;108305;1241;74552;-74
2022/09/12 11:12:17;;;;;;;5.00;2.10;;;;;;;17.48;53.26;100470.20;108323;1241;59068;-74
2022/09/12 11:15:28;;;;;;;3.10;1.90;;;;;;;17.50;53.64;100472.17;108145;1241;62144;-74
2022/09/12 11:18:27;;;;;;;2.70;1.90;;;;;;;17.50;53.31;100473.20;108288;1241;75938;-75
2022/09/12 11:21:22;;;;;;;3.20;1.90;;;;;;;17.44;54.15;100473.13;108459;1241;61347;-71
2022/09/12 11:24:25;;;;;;;4.30;1.90;;;;;;;17.63;54.17;100474.14;108356;1242;60437;-73
2022/09/12 11:27:25;;;;;;;2.20;1.50;;;;;;;17.84;53.18;100477.02;108368;1241;63606;-78
2022/09/12 11:30:11;;;;;;;2.80;1.90;;;;;;;17.83;53.29;100476.09;108294;1241;59133;-72
2022/09/12 11:33:00;;;;;;;9.80;2.00;;;;;;;17.98;53.11;100476.73;108244;1241;60437;-70
2022/09/12 11:35:32;;;;;;;2.50;1.40;;;;;;;18.14;52.75;100471.27;108260;1241;75074;-74
2022/09/12 11:39:11;;;;;;;3.10;1.50;;;;;;;18.50;51.94;100467.77;107993;1241;72178;-73
2022/09/12 11:41:47;;;;;;;4.10;1.80;;;;;;;19.08;51.01;100468.89;107801;1242;59763;-75
2022/09/12 11:44:32;;;;;;;3.20;1.40;;;;;;;19.47;49.93;100466.11;108288;1241;73897;-74
2022/09/12 11:47:07;;;;;;;4.10;1.80;;;;;;;19.42;49.62;100473.79;108034;1241;59553;-75
2022/09/12 11:49:42;;;;;;;2.60;1.60;;;;;;;19.15;49.99;100469.70;108262;1241;61249;-73
2022/09/12 11:52:28;;;;;;;3.90;1.60;;;;;;;18.94;50.37;100466.58;108252;1241;64211;-77
2022/09/12 11:55:24;;;;;;;2.90;1.70;;;;;;;18.61;50.77;100477.08;108244;1241;72231;-73
2022/09/12 11:57:58;;;;;;;4.80;1.60;;;;;;;18.37;51.47;100478.72;107991;1243;59579;-76
2022/09/12 12:00:55;;;;;;;2.30;1.30;;;;;;;17.92;52.61;100485.30;107988;1241;63232;-73